Time;durP1;ratioP1;P1;durP2;ratioP2;P2;SDS_P1;SDS_P2;PMS_P1;PMS_P2;Temp;Humidity;BMP_temperature;BMP_pressure;BME280_temperature;BME280_humidity;BME280_pressure;Samples;Min_cycle;Max_cycle;Signal;HPM_P1;HPM_P2
2021/03/31 00:02:17;;;;;;;6.00;1.63;;;11.30;49.70;;;;;;4972499;28;20435;-82
2021/03/31 00:04:43;;;;;;;5.83;1.53;;;11.30;49.80;;;;;;4966524;28;20027;-81
2021/03/31 00:07:11;;;;;;;6.77;2.37;;;11.20;50.00;;;;;;4966787;28;20071;-82
2021/03/31 00:09:38;;;;;;;5.03;1.97;;;11.10;50.20;;;;;;4953363;28;20038;-81
2021/03/31 00:12:06;;;;;;;6.63;1.70;;;11.00;50.50;;;;;;4984481;28;20027;-82
2021/03/31 00:14:32;;;;;;;6.03;1.70;;;11.00;50.50;;;;;;4972209;28;20380;-82
2021/03/31 00:16:57;;;;;;;3.83;2.10;;;11.00;50.40;;;;;;4988341;28;20121;-82
2021/03/31 00:19:23;;;;;;;4.97;1.80;;;10.90;50.60;;;;;;4971352;28;20114;-82
2021/03/31 00:21:49;;;;;;;7.67;1.93;;;10.80;50.80;;;;;;4970454;28;20521;-81
2021/03/31 00:24:15;;;;;;;5.10;2.27;;;10.60;51.10;;;;;;4963840;28;20043;-82
2021/03/31 00:26:41;;;;;;;3.37;1.57;;;10.50;51.50;;;;;;4972599;28;20026;-81
2021/03/31 00:29:07;;;;;;;9.17;2.00;;;10.50;51.50;;;;;;4971904;28;20027;-82
2021/03/31 00:31:33;;;;;;;3.67;1.80;;;10.60;51.40;;;;;;4973017;28;20110;-81
2021/03/31 00:33:59;;;;;;;7.90;3.10;;;10.60;51.50;;;;;;4973161;28;20042;-81
2021/03/31 00:36:24;;;;;;;4.90;1.43;;;10.50;51.50;;;;;;4971035;28;20027;-81
2021/03/31 00:38:50;;;;;;;7.43;1.60;;;10.50;51.60;;;;;;4970546;28;20053;-81
2021/03/31 00:41:16;;;;;;;6.67;1.87;;;10.60;51.60;;;;;;4971618;28;20035;-81
2021/03/31 00:43:42;;;;;;;4.87;1.40;;;10.60;51.70;;;;;;4973072;28;20022;-81
2021/03/31 00:46:07;;;;;;;8.43;2.13;;;10.50;51.70;;;;;;4954466;28;20114;-81
2021/03/31 00:48:34;;;;;;;7.10;1.70;;;10.50;51.70;;;;;;4981649;28;20047;-81
2021/03/31 00:51:01;;;;;;;7.40;1.33;;;10.50;52.20;;;;;;4969527;28;20402;-82
2021/03/31 00:53:32;;;;;;;7.47;2.83;;;10.50;51.80;;;;;;4971206;28;20118;-81
2021/03/31 00:55:58;;;;;;;7.80;1.80;;;10.50;51.70;;;;;;4971550;28;20073;-82
2021/03/31 00:58:24;;;;;;;14.17;2.50;;;10.50;52.30;;;;;;4988025;28;20055;-82
2021/03/31 01:00:50;;;;;;;7.83;2.17;;;10.50;51.80;;;;;;4975239;28;20033;-81
2021/03/31 01:03:16;;;;;;;6.47;2.03;;;10.30;51.80;;;;;;4974949;28;20114;-82
2021/03/31 01:05:42;;;;;;;6.10;1.97;;;10.30;52.20;;;;;;4961120;28;20475;-79
2021/03/31 01:08:08;;;;;;;7.87;1.83;;;10.30;52.20;;;;;;4965172;28;20055;-82
2021/03/31 01:10:56;;;;;;;3.63;1.80;;;10.20;52.40;;;;;;4957780;28;20125;-82
2021/03/31 01:13:43;;;;;;;10.43;3.03;;;10.30;52.50;;;;;;4963331;28;20126;-82
2021/03/31 01:16:18;;;;;;;6.77;1.80;;;10.20;52.40;;;;;;4971546;28;20517;-82
2021/03/31 01:18:59;;;;;;;7.90;2.13;;;10.20;52.40;;;;;;4960471;28;20452;-84
2021/03/31 01:21:57;;;;;;;6.93;2.00;;;10.30;52.20;;;;;;4970374;28;20047;-83
2021/03/31 01:24:55;;;;;;;7.03;2.17;;;10.20;52.30;;;;;;4954462;28;20043;-83
2021/03/31 01:27:39;;;;;;;14.07;2.80;;;10.20;52.30;;;;;;4973759;28;20494;-82
2021/03/31 01:30:07;;;;;;;7.30;3.73;;;10.20;52.30;;;;;;4970360;28;20026;-83
2021/03/31 01:32:33;;;;;;;13.63;3.20;;;10.10;52.30;;;;;;4975598;28;20022;-82
2021/03/31 01:35:05;;;;;;;9.20;2.30;;;10.10;52.50;;;;;;4973161;28;20030;-83
2021/03/31 01:37:41;;;;;;;11.90;2.37;;;10.20;52.50;;;;;;4971108;28;20038;-83
2021/03/31 01:40:09;;;;;;;9.80;2.10;;;10.20;52.30;;;;;;4957201;28;20109;-83
2021/03/31 01:42:39;;;;;;;7.70;2.43;;;10.30;52.30;;;;;;4968064;28;20027;-83
2021/03/31 01:45:08;;;;;;;4.73;1.90;;;10.20;52.20;;;;;;4978670;28;20387;-83
2021/03/31 01:47:37;;;;;;;8.10;2.30;;;10.20;52.20;;;;;;4970900;28;20026;-83
2021/03/31 01:50:06;;;;;;;9.50;2.10;;;10.20;52.20;;;;;;4973275;28;20487;-83
2021/03/31 01:52:33;;;;;;;6.27;1.37;;;10.20;52.20;;;;;;4971974;28;20031;-82
2021/03/31 01:54:59;;;;;;;7.57;1.73;;;10.20;52.10;;;;;;4974564;28;20019;-82
2021/03/31 01:57:26;;;;;;;6.10;1.07;;;10.20;52.20;;;;;;4969098;28;20031;-82
2021/03/31 01:59:53;;;;;;;5.07;1.47;;;10.20;52.00;;;;;;4970776;28;20058;-82
2021/03/31 02:02:21;;;;;;;6.90;1.97;;;10.30;51.90;;;;;;4975870;28;20044;-82
2021/03/31 02:04:48;;;;;;;6.47;1.50;;;10.20;51.80;;;;;;4972297;28;20518;-83
2021/03/31 02:07:14;;;;;;;4.97;1.10;;;10.20;52.20;;;;;;4974033;28;20070;-82
2021/03/31 02:09:42;;;;;;;4.20;1.40;;;10.30;52.10;;;;;;4972621;28;20559;-83
2021/03/31 02:12:11;;;;;;;3.53;1.20;;;10.10;52.00;;;;;;4958325;28;20023;-82
2021/03/31 02:14:39;;;;;;;12.10;2.70;;;9.90;52.40;;;;;;4973910;28;20026;-82
2021/03/31 02:17:08;;;;;;;13.77;1.83;;;9.90;52.80;;;;;;4969142;28;20074;-82
2021/03/31 02:19:37;;;;;;;6.77;1.40;;;9.90;52.80;;;;;;4973019;28;20497;-82
2021/03/31 02:22:04;;;;;;;7.33;1.80;;;9.90;53.30;;;;;;4970166;28;20066;-82
2021/03/31 02:24:32;;;;;;;6.23;1.83;;;9.90;52.70;;;;;;4972772;28;20458;-82
2021/03/31 02:26:57;;;;;;;6.83;1.37;;;9.90;52.60;;;;;;4972778;28;20093;-82
2021/03/31 02:29:23;;;;;;;5.10;1.93;;;9.90;52.50;;;;;;4969101;28;20027;-82
2021/03/31 02:31:50;;;;;;;8.77;1.67;;;9.90;52.50;;;;;;4982323;28;20057;-82
2021/03/31 02:34:16;;;;;;;9.10;2.40;;;9.80;52.60;;;;;;4976439;28;20471;-82
2021/03/31 02:36:44;;;;;;;4.07;1.93;;;9.80;52.90;;;;;;4963480;28;20011;-81
2021/03/31 02:39:11;;;;;;;9.00;3.40;;;9.80;52.90;;;;;;4973962;28;20431;-82
2021/03/31 02:41:44;;;;;;;3.37;1.40;;;9.70;53.00;;;;;;4973296;28;20034;-82
2021/03/31 02:44:11;;;;;;;8.30;1.67;;;9.60;53.10;;;;;;4964347;28;20019;-81
2021/03/31 02:46:39;;;;;;;5.93;1.63;;;9.60;53.10;;;;;;4971365;28;22391;-82
2021/03/31 02:49:07;;;;;;;8.33;2.47;;;9.60;53.30;;;;;;4971760;28;20037;-81
2021/03/31 02:51:38;;;;;;;7.67;1.80;;;9.50;53.40;;;;;;4964205;28;20023;-82
2021/03/31 02:54:06;;;;;;;7.80;2.00;;;9.50;53.60;;;;;;4959766;28;20031;-82
2021/03/31 02:56:33;;;;;;;5.47;2.00;;;9.40;53.70;;;;;;4965725;28;20063;-83
2021/03/31 02:59:00;;;;;;;10.30;1.70;;;9.40;53.60;;;;;;4963960;28;20391;-83
2021/03/31 03:01:27;;;;;;;3.73;1.27;;;9.40;53.70;;;;;;4965424;28;20031;-82
2021/03/31 03:03:55;;;;;;;9.93;2.50;;;9.40;53.70;;;;;;4973432;28;20539;-82
2021/03/31 03:06:25;;;;;;;6.20;1.53;;;9.40;53.80;;;;;;4969214;28;20117;-83
2021/03/31 03:08:54;;;;;;;6.53;2.43;;;9.30;53.80;;;;;;4972446;28;20043;-83
2021/03/31 03:11:21;;;;;;;10.03;1.60;;;9.30;54.00;;;;;;4970533;28;20031;-83
2021/03/31 03:13:49;;;;;;;7.57;2.00;;;9.30;54.20;;;;;;4960815;28;20027;-81
2021/03/31 03:16:16;;;;;;;13.77;2.13;;;9.30;54.00;;;;;;4970185;28;20023;-81
2021/03/31 03:18:43;;;;;;;26.57;4.07;;;9.20;54.10;;;;;;4959334;28;20082;-81
2021/03/31 03:21:13;;;;;;;7.33;1.90;;;9.20;54.20;;;;;;4972611;28;20037;-81
2021/03/31 03:23:42;;;;;;;8.27;2.33;;;9.20;54.10;;;;;;4973470;28;20027;-82
2021/03/31 03:26:12;;;;;;;6.60;2.67;;;9.20;54.10;;;;;;4972205;28;20026;-82
2021/03/31 03:28:40;;;;;;;9.33;3.23;;;9.10;54.60;;;;;;4970551;28;20042;-82
2021/03/31 03:31:08;;;;;;;5.80;2.63;;;9.10;54.90;;;;;;4965872;28;20376;-82
2021/03/31 03:33:34;;;;;;;6.70;2.27;;;9.10;54.40;;;;;;4969220;28;20019;-81
2021/03/31 03:36:04;;;;;;;8.83;1.90;;;9.10;54.60;;;;;;4956041;28;20078;-81
2021/03/31 03:38:31;;;;;;;8.13;2.90;;;9.10;54.50;;;;;;4968008;28;20258;-81
2021/03/31 03:40:57;;;;;;;8.37;2.30;;;9.20;54.30;;;;;;4969029;28;20588;-82
2021/03/31 03:43:23;;;;;;;19.00;2.63;;;9.10;55.00;;;;;;4962567;28;20027;-82
2021/03/31 03:45:51;;;;;;;9.43;2.50;;;9.10;54.50;;;;;;4955176;28;20530;-82
2021/03/31 03:48:17;;;;;;;12.27;1.83;;;9.00;54.50;;;;;;4970456;28;20059;-82
2021/03/31 03:50:42;;;;;;;6.37;1.67;;;8.90;54.70;;;;;;4987816;28;20069;-82
2021/03/31 03:53:08;;;;;;;10.03;2.10;;;8.90;55.00;;;;;;4960527;28;20063;-82
2021/03/31 03:55:35;;;;;;;8.83;2.03;;;8.80;55.00;;;;;;4957748;28;20577;-83
2021/03/31 03:58:09;;;;;;;10.17;2.23;;;8.90;55.30;;;;;;4968979;28;20106;-82
2021/03/31 04:00:35;;;;;;;15.77;4.47;;;8.80;55.10;;;;;;4971893;28;20501;-82
2021/03/31 04:03:01;;;;;;;7.33;2.37;;;8.90;55.20;;;;;;4968228;28;20039;-83
2021/03/31 04:05:26;;;;;;;10.33;2.73;;;8.90;55.10;;;;;;4983795;28;20040;-82
2021/03/31 04:07:53;;;;;;;17.33;2.50;;;8.90;55.10;;;;;;4962229;28;20403;-82
2021/03/31 04:10:25;;;;;;;5.30;2.00;;;8.90;55.10;;;;;;4971813;28;20034;-83
2021/03/31 04:12:52;;;;;;;8.00;2.60;;;9.00;55.10;;;;;;4970189;28;20038;-82
2021/03/31 04:15:20;;;;;;;7.90;2.83;;;9.00;54.90;;;;;;4971148;28;20035;-82
2021/03/31 04:17:47;;;;;;;9.37;2.83;;;9.00;55.00;;;;;;4961515;28;20368;-83
2021/03/31 04:20:16;;;;;;;7.63;3.47;;;9.00;55.00;;;;;;4970063;28;20035;-82
2021/03/31 04:22:42;;;;;;;8.73;3.33;;;9.00;55.10;;;;;;4968911;28;20480;-82
2021/03/31 04:25:13;;;;;;;8.77;3.10;;;9.00;55.00;;;;;;4955576;28;20030;-82
2021/03/31 04:27:39;;;;;;;8.40;3.73;;;9.00;54.80;;;;;;4988263;28;20039;-82
2021/03/31 04:30:13;;;;;;;9.97;3.27;;;8.80;54.80;;;;;;4969566;28;20041;-82
2021/03/31 04:32:41;;;;;;;10.20;3.33;;;8.80;55.20;;;;;;4954222;28;20050;-83
2021/03/31 04:35:08;;;;;;;10.77;2.93;;;8.80;55.20;;;;;;4969989;28;20036;-83
2021/03/31 04:37:34;;;;;;;17.43;3.23;;;8.80;55.20;;;;;;4976344;28;20033;-83
2021/03/31 04:40:00;;;;;;;10.23;3.23;;;8.70;55.20;;;;;;4959082;28;20031;-83
2021/03/31 04:42:25;;;;;;;17.90;4.10;;;8.80;55.40;;;;;;4975339;28;20030;-82
2021/03/31 04:44:51;;;;;;;9.13;3.07;;;8.70;55.30;;;;;;4972297;28;20130;-83
2021/03/31 04:47:17;;;;;;;14.27;4.47;;;8.70;55.30;;;;;;4969470;28;20027;-83
2021/03/31 04:49:43;;;;;;;13.30;3.60;;;8.70;55.20;;;;;;4970226;28;20027;-82
2021/03/31 04:52:08;;;;;;;12.77;3.93;;;8.70;55.30;;;;;;4995311;28;20077;-82
2021/03/31 04:54:34;;;;;;;13.20;4.23;;;8.70;55.30;;;;;;4958271;28;20028;-83
2021/03/31 04:57:00;;;;;;;11.20;4.20;;;8.60;55.40;;;;;;4972622;28;20043;-82
2021/03/31 04:59:25;;;;;;;13.00;3.80;;;8.50;55.50;;;;;;4956379;29;20031;-83
2021/03/31 05:01:51;;;;;;;9.53;3.80;;;8.50;55.80;;;;;;4975752;28;20117;-83
2021/03/31 05:04:17;;;;;;;11.43;3.80;;;8.50;55.80;;;;;;4973740;28;20078;-82
2021/03/31 05:06:42;;;;;;;24.20;5.97;;;8.50;55.70;;;;;;4976497;28;20117;-82
2021/03/31 05:09:08;;;;;;;27.70;7.50;;;8.50;55.70;;;;;;4969615;28;20071;-82
2021/03/31 05:11:34;;;;;;;21.23;6.50;;;8.40;55.80;;;;;;4962230;28;20483;-82
2021/03/31 05:14:00;;;;;;;25.23;5.77;;;8.30;56.00;;;;;;4961519;28;20110;-82
2021/03/31 05:16:25;;;;;;;14.43;4.33;;;8.40;56.20;;;;;;4967540;28;20475;-83
2021/03/31 05:18:51;;;;;;;18.37;5.07;;;8.40;56.20;;;;;;4974511;28;20031;-84
2021/03/31 05:21:17;;;;;;;9.53;3.50;;;8.30;56.00;;;;;;4971693;28;20023;-83
2021/03/31 05:23:42;;;;;;;12.80;4.17;;;8.40;56.20;;;;;;4962855;28;20038;-83
2021/03/31 05:26:08;;;;;;;12.20;3.93;;;8.40;56.10;;;;;;4961945;28;20054;-83
2021/03/31 05:28:34;;;;;;;16.30;4.67;;;8.40;56.20;;;;;;4976430;28;20442;-83
2021/03/31 05:31:00;;;;;;;22.93;5.40;;;8.30;56.20;;;;;;4971846;28;20039;-82
2021/03/31 05:33:25;;;;;;;15.73;4.80;;;8.30;56.30;;;;;;4956727;28;20032;-81
2021/03/31 05:35:51;;;;;;;14.57;5.57;;;8.30;56.20;;;;;;4955423;28;20125;-82
2021/03/31 05:38:17;;;;;;;12.70;5.23;;;8.40;56.40;;;;;;4964909;28;20509;-82
2021/03/31 05:40:43;;;;;;;17.60;4.37;;;8.40;56.40;;;;;;4973983;28;20027;-82
2021/03/31 05:43:09;;;;;;;10.43;3.73;;;8.40;56.40;;;;;;4974966;28;20065;-82
2021/03/31 05:45:35;;;;;;;10.37;3.70;;;8.40;56.30;;;;;;4976179;28;20137;-82
2021/03/31 05:48:02;;;;;;;14.60;2.90;;;8.40;56.40;;;;;;4973277;28;20042;-82
2021/03/31 05:50:29;;;;;;;10.87;3.20;;;8.50;56.40;;;;;;4973834;28;20562;-82
2021/03/31 05:52:55;;;;;;;9.67;3.80;;;8.50;56.30;;;;;;4972179;28;20027;-81
2021/03/31 05:55:20;;;;;;;18.23;3.27;;;8.60;56.30;;;;;;4955248;29;20518;-82
2021/03/31 05:57:46;;;;;;;9.03;2.73;;;8.60;56.30;;;;;;4957128;28;20019;-83
2021/03/31 06:00:18;;;;;;;10.43;3.73;;;8.70;56.20;;;;;;4965512;28;20031;-82
2021/03/31 06:02:46;;;;;;;14.50;4.28;;;8.70;56.10;;;;;;4972248;28;20031;-83
2021/03/31 06:05:14;;;;;;;10.43;3.63;;;8.70;56.00;;;;;;4973133;28;20070;-82
2021/03/31 06:07:45;;;;;;;17.20;4.17;;;8.70;56.00;;;;;;4974329;28;20133;-82
2021/03/31 06:10:13;;;;;;;15.60;4.20;;;8.80;56.20;;;;;;4969592;28;20041;-82
2021/03/31 06:12:41;;;;;;;10.27;4.70;;;8.90;56.00;;;;;;4973368;28;20019;-81
2021/03/31 06:15:32;;;;;;;20.33;3.83;;;8.90;55.80;;;;;;4969245;28;20030;-81
2021/03/31 06:18:07;;;;;;;14.07;3.77;;;8.90;55.80;;;;;;4973964;28;20431;-82
2021/03/31 06:20:36;;;;;;;15.97;2.87;;;9.00;55.80;;;;;;4967429;28;20051;-82
2021/03/31 06:28:31;;;;;;;11.40;3.23;;;9.10;55.40;;;;;;4974861;28;20031;-80
2021/03/31 06:31:10;;;;;;;14.00;4.20;;;9.10;55.30;;;;;;4970677;28;20082;-80
2021/03/31 06:33:37;;;;;;;16.63;4.10;;;9.10;55.30;;;;;;4965996;28;20085;-81
2021/03/31 06:36:04;;;;;;;14.70;3.40;;;9.10;55.20;;;;;;4969127;28;20086;-82
2021/03/31 06:38:35;;;;;;;10.13;2.83;;;9.10;55.50;;;;;;4967841;28;20379;-82
2021/03/31 06:41:35;;;;;;;20.60;6.30;;;9.10;55.40;;;;;;4985984;28;20034;-82
2021/03/31 06:44:16;;;;;;;12.73;4.40;;;9.10;55.40;;;;;;4976394;28;20035;-81
2021/03/31 06:46:53;;;;;;;20.00;4.30;;;9.20;55.50;;;;;;4969675;28;20026;-81
2021/03/31 06:49:19;;;;;;;19.27;7.23;;;9.30;55.50;;;;;;4961833;28;20029;-81
2021/03/31 06:51:45;;;;;;;18.80;5.87;;;9.20;55.50;;;;;;4975161;28;20476;-81
2021/03/31 06:54:21;;;;;;;16.17;5.10;;;9.20;55.80;;;;;;4962983;28;20031;-81
2021/03/31 06:56:57;;;;;;;16.90;4.20;;;9.30;55.80;;;;;;4965733;28;20034;-81
2021/03/31 06:59:27;;;;;;;12.50;3.30;;;9.40;55.30;;;;;;4962873;28;20110;-81
2021/03/31 07:01:54;;;;;;;20.83;2.97;;;9.50;55.10;;;;;;4969169;28;20035;-82
2021/03/31 07:04:21;;;;;;;14.47;3.10;;;9.60;54.90;;;;;;4971224;28;20472;-81
2021/03/31 07:07:09;;;;;;;9.67;2.73;;;9.70;54.80;;;;;;4972504;28;20027;-81
2021/03/31 07:09:39;;;;;;;8.37;3.07;;;10.00;54.70;;;;;;4973211;28;20084;-81
2021/03/31 07:12:18;;;;;;;9.23;2.77;;;10.00;54.30;;;;;;4972462;28;20045;-82
2021/03/31 07:14:49;;;;;;;15.00;3.20;;;10.10;53.80;;;;;;4972973;28;20433;-81
2021/03/31 07:17:25;;;;;;;8.33;3.10;;;10.10;53.50;;;;;;4963489;28;20031;-82
2021/03/31 07:19:51;;;;;;;8.50;2.60;;;10.10;53.00;;;;;;4972353;28;20092;-81
2021/03/31 07:22:18;;;;;;;6.77;2.40;;;10.30;53.00;;;;;;4965320;28;20042;-81
2021/03/31 07:24:43;;;;;;;8.10;3.00;;;10.30;52.50;;;;;;4968136;28;20041;-82
2021/03/31 07:27:13;;;;;;;7.63;2.90;;;10.40;52.50;;;;;;4968847;28;20031;-82
2021/03/31 07:30:05;;;;;;;15.27;2.77;;;10.50;52.30;;;;;;4972862;28;20126;-81
2021/03/31 07:32:31;;;;;;;8.83;2.10;;;10.70;51.90;;;;;;4973886;28;20380;-82
2021/03/31 07:35:01;;;;;;;10.27;2.80;;;10.90;51.70;;;;;;4966189;28;20035;-82
2021/03/31 07:37:27;;;;;;;11.47;2.33;;;10.90;51.10;;;;;;4965822;28;20031;-82
2021/03/31 07:39:54;;;;;;;10.97;2.20;;;10.90;50.80;;;;;;4961619;28;20033;-82
2021/03/31 07:42:21;;;;;;;10.53;2.70;;;11.00;50.80;;;;;;4972772;28;20027;-82
2021/03/31 07:44:48;;;;;;;11.50;2.77;;;11.10;50.70;;;;;;4965527;28;20070;-82
2021/03/31 07:47:16;;;;;;;12.47;2.27;;;11.20;50.40;;;;;;4974243;28;20041;-82
2021/03/31 07:50:16;;;;;;;11.20;2.93;;;11.30;50.20;;;;;;4970725;28;20035;-82
2021/03/31 07:52:51;;;;;;;8.13;2.10;;;11.50;50.20;;;;;;4980214;28;20031;-82
2021/03/31 07:55:44;;;;;;;10.13;2.40;;;11.70;49.90;;;;;;4966234;28;20034;-82
2021/03/31 07:58:18;;;;;;;7.45;2.42;;;12.00;49.90;;;;;;4965751;28;20049;-82
2021/03/31 08:00:47;;;;;;;11.47;2.80;;;12.10;49.60;;;;;;4965500;28;20027;-83
2021/03/31 08:03:14;;;;;;;8.77;2.67;;;12.30;49.20;;;;;;4962202;28;20483;-82
2021/03/31 08:06:15;;;;;;;9.53;2.23;;;12.40;49.20;;;;;;4970054;28;20042;-83
2021/03/31 08:08:43;;;;;;;8.57;2.80;;;12.60;49.20;;;;;;4972662;28;20061;-83
2021/03/31 08:11:10;;;;;;;11.87;2.90;;;12.80;48.90;;;;;;4963148;28;20491;-82
2021/03/31 08:13:38;;;;;;;7.83;2.87;;;12.90;48.50;;;;;;4967207;28;20032;-82
2021/03/31 08:16:23;;;;;;;6.63;2.27;;;13.00;48.30;;;;;;4968509;28;20055;-82
2021/03/31 08:18:51;;;;;;;10.50;2.50;;;13.20;47.60;;;;;;4967711;28;20495;-83
2021/03/31 08:21:25;;;;;;;15.13;1.90;;;13.40;47.50;;;;;;4957144;28;20087;-82
2021/03/31 08:23:57;;;;;;;11.90;1.60;;;13.60;46.60;;;;;;4979737;28;20078;-83
2021/03/31 08:26:44;;;;;;;15.60;2.53;;;13.80;46.20;;;;;;4971561;28;20023;-83
2021/03/31 08:29:19;;;;;;;12.03;2.37;;;13.90;44.50;;;;;;4964542;28;20024;-82
2021/03/31 08:31:55;;;;;;;6.67;2.00;;;13.90;43.60;;;;;;4959864;28;20031;-82
2021/03/31 08:34:23;;;;;;;17.90;2.20;;;13.90;43.60;;;;;;4970093;28;20027;-83
2021/03/31 08:36:49;;;;;;;9.40;1.97;;;14.00;43.40;;;;;;4972725;28;20876;-82
2021/03/31 08:39:15;;;;;;;14.07;3.13;;;14.20;43.10;;;;;;4971204;28;20023;-82
2021/03/31 08:41:52;;;;;;;7.97;2.00;;;14.40;42.70;;;;;;4971905;28;20038;-82
2021/03/31 08:44:34;;;;;;;11.50;1.60;;;14.60;42.40;;;;;;4964661;28;20031;-82
2021/03/31 08:47:30;;;;;;;9.53;1.63;;;14.70;41.70;;;;;;4973650;28;20078;-82
2021/03/31 08:50:06;;;;;;;8.93;1.83;;;14.80;41.00;;;;;;4974641;28;20278;-83
2021/03/31 08:53:10;;;;;;;8.63;2.00;;;15.00;40.70;;;;;;4970312;28;20498;-82
2021/03/31 08:55:38;;;;;;;8.27;1.70;;;15.10;39.80;;;;;;4948435;28;20031;-82
2021/03/31 08:58:05;;;;;;;10.27;1.80;;;15.30;39.90;;;;;;4964107;28;20514;-82
2021/03/31 09:00:40;;;;;;;8.87;1.50;;;15.40;39.10;;;;;;4971657;28;20039;-82
2021/03/31 09:03:06;;;;;;;15.60;1.80;;;15.40;38.90;;;;;;4972638;28;20431;-81
2021/03/31 09:05:32;;;;;;;12.07;2.47;;;15.60;38.40;;;;;;4972197;28;20077;-82
2021/03/31 09:07:59;;;;;;;6.97;1.60;;;15.70;38.10;;;;;;4974803;28;20070;-82
2021/03/31 09:10:26;;;;;;;8.90;1.40;;;15.90;37.70;;;;;;4967945;28;20105;-82
2021/03/31 09:12:52;;;;;;;5.90;1.60;;;15.90;37.00;;;;;;4965725;28;20050;-82
2021/03/31 09:15:18;;;;;;;5.77;1.50;;;16.00;37.00;;;;;;4971178;28;20026;-82
2021/03/31 09:17:44;;;;;;;6.53;1.73;;;16.20;37.30;;;;;;4969816;28;20121;-83
2021/03/31 09:20:12;;;;;;;8.60;1.67;;;16.40;36.90;;;;;;4971077;28;20077;-83
2021/03/31 09:22:38;;;;;;;15.05;2.15;;;16.60;36.60;;;;;;4974731;28;20114;-82
2021/03/31 09:25:08;;;;;;;10.25;1.65;;;16.70;36.40;;;;;;4975157;28;20039;-82
2021/03/31 09:27:34;;;;;;;10.07;2.20;;;16.90;36.30;;;;;;4966314;28;20026;-83
2021/03/31 09:30:05;;;;;;;11.35;1.50;;;17.10;36.00;;;;;;4963608;28;20028;-83
2021/03/31 09:35:07;;;;;;;5.78;1.55;;;17.30;35.80;;;;;;4970678;28;20133;-83
2021/03/31 09:37:40;;;;;;;8.65;1.85;;;17.50;35.60;;;;;;4962165;28;20074;-83
2021/03/31 09:40:06;;;;;;;5.55;1.70;;;17.60;35.50;;;;;;4973319;28;20094;-83
2021/03/31 09:42:35;;;;;;;9.40;1.98;;;17.70;35.60;;;;;;4970287;28;20050;-83
2021/03/31 09:45:04;;;;;;;8.27;1.80;;;17.80;35.00;;;;;;4966832;28;20039;-83
2021/03/31 09:47:30;;;;;;;8.30;1.88;;;17.90;34.40;;;;;;4969183;28;20030;-82
2021/03/31 09:49:57;;;;;;;10.35;2.10;;;18.00;34.10;;;;;;4975379;28;20090;-83
2021/03/31 09:52:31;;;;;;;8.25;1.55;;;18.10;33.60;;;;;;4975008;28;20518;-82
2021/03/31 09:55:03;;;;;;;5.07;1.55;;;18.10;33.40;;;;;;4975077;28;20023;-82
2021/03/31 09:57:30;;;;;;;15.07;2.10;;;18.20;33.60;;;;;;4989019;28;20037;-82
2021/03/31 10:00:00;;;;;;;9.52;2.53;;;18.30;33.40;;;;;;4974281;28;20398;-82
2021/03/31 10:02:26;;;;;;;12.48;1.90;;;18.30;32.90;;;;;;4968982;28;20494;-83
2021/03/31 10:04:52;;;;;;;13.02;1.67;;;18.50;32.90;;;;;;4968242;28;20042;-82
2021/03/31 10:07:20;;;;;;;10.40;1.52;;;18.60;32.90;;;;;;4968541;28;20133;-82
2021/03/31 10:09:50;;;;;;;12.25;1.80;;;18.60;32.90;;;;;;4968755;28;20035;-82
2021/03/31 10:12:36;;;;;;;8.07;1.77;;;18.70;33.00;;;;;;4955425;29;20067;-82
2021/03/31 10:15:10;;;;;;;10.63;2.33;;;18.90;33.50;;;;;;4963849;28;20456;-82
2021/03/31 10:17:36;;;;;;;7.47;1.65;;;19.10;33.30;;;;;;4963229;28;20039;-82
2021/03/31 10:20:12;;;;;;;4.03;1.55;;;19.30;33.30;;;;;;4990700;28;20062;-82
2021/03/31 10:22:38;;;;;;;7.43;1.63;;;19.40;32.40;;;;;;4974129;28;20542;-82
2021/03/31 10:25:08;;;;;;;7.10;1.55;;;19.50;32.20;;;;;;4990396;28;20031;-83
2021/03/31 10:27:44;;;;;;;8.30;1.67;;;19.50;31.50;;;;;;4971006;28;20082;-83
2021/03/31 10:30:34;;;;;;;10.07;2.30;;;19.60;31.50;;;;;;4975686;28;20026;-82
2021/03/31 10:33:00;;;;;;;9.18;2.03;;;19.60;31.20;;;;;;4954915;28;20038;-82
2021/03/31 10:35:52;;;;;;;8.38;1.35;;;19.70;31.00;;;;;;4971570;28;20035;-83
2021/03/31 10:38:27;;;;;;;10.90;1.92;;;19.70;30.80;;;;;;4972733;28;20433;-82
2021/03/31 10:51:59;;;;;;;6.55;1.48;;;20.30;30.90;;;;;;4974676;28;20027;-82
2021/03/31 10:54:27;;;;;;;12.43;2.10;;;20.50;31.00;;;;;;4961648;28;20024;-82
2021/03/31 10:57:12;;;;;;;6.00;1.67;;;20.70;30.70;;;;;;4978799;28;20027;-82
2021/03/31 10:59:38;;;;;;;5.95;1.33;;;20.70;30.00;;;;;;4969438;28;20023;-82
2021/03/31 11:02:04;;;;;;;5.50;1.35;;;20.80;29.90;;;;;;4985246;28;20418;-82
2021/03/31 11:04:30;;;;;;;3.05;1.02;;;21.00;29.80;;;;;;4992723;28;20042;-83
2021/03/31 11:06:56;;;;;;;10.85;2.17;;;21.00;29.30;;;;;;4982933;28;20041;-82
2021/03/31 11:09:22;;;;;;;10.27;1.98;;;21.00;29.20;;;;;;4975516;28;20599;-82
2021/03/31 11:11:48;;;;;;;9.52;2.10;;;21.20;29.30;;;;;;4970699;28;20039;-82
2021/03/31 11:14:16;;;;;;;5.00;1.52;;;21.30;29.00;;;;;;4974414;28;20027;-82
2021/03/31 11:16:48;;;;;;;5.95;1.67;;;21.30;28.80;;;;;;4968777;28;20034;-82
2021/03/31 11:27:07;;;;;;;8.63;1.88;;;21.80;29.00;;;;;;4973497;28;20038;-82
2021/03/31 11:29:33;;;;;;;13.02;2.08;;;21.80;28.90;;;;;;4969059;28;20415;-82
2021/03/31 11:31:59;;;;;;;14.02;2.00;;;21.90;28.80;;;;;;4973601;28;20372;-82
2021/03/31 11:34:24;;;;;;;10.40;2.45;;;21.90;28.40;;;;;;4967632;28;20019;-82
2021/03/31 11:36:51;;;;;;;11.75;2.58;;;21.90;28.20;;;;;;4987058;28;20396;-82
2021/03/31 11:39:18;;;;;;;7.35;2.10;;;22.00;28.50;;;;;;4972134;28;20368;-82
2021/03/31 11:41:45;;;;;;;6.60;2.00;;;22.10;28.40;;;;;;4972271;28;20019;-82
2021/03/31 11:44:10;;;;;;;11.60;2.35;;;22.30;28.30;;;;;;4956487;28;20434;-82
2021/03/31 11:46:36;;;;;;;13.02;2.65;;;22.30;28.50;;;;;;4971364;28;20117;-82
2021/03/31 11:49:02;;;;;;;11.98;2.17;;;22.50;28.60;;;;;;4988928;28;20031;-82
2021/03/31 11:51:27;;;;;;;12.75;2.63;;;22.70;28.80;;;;;;4973161;28;20065;-82
2021/03/31 11:53:53;;;;;;;8.85;2.58;;;22.80;29.10;;;;;;4969097;28;20023;-82
2021/03/31 11:56:19;;;;;;;14.23;2.42;;;22.90;29.20;;;;;;4959858;28;20411;-82
2021/03/31 11:58:45;;;;;;;11.45;1.92;;;23.10;29.10;;;;;;4971741;28;20034;-82
2021/03/31 12:01:10;;;;;;;9.45;2.40;;;23.10;29.30;;;;;;4971833;28;20077;-82
2021/03/31 12:03:36;;;;;;;11.60;2.35;;;23.30;29.30;;;;;;4973466;28;20113;-82
2021/03/31 12:06:02;;;;;;;12.77;2.67;;;23.40;29.20;;;;;;4967097;28;20105;-82
2021/03/31 12:08:28;;;;;;;8.63;1.98;;;23.40;28.70;;;;;;4959821;28;20051;-82
2021/03/31 12:10:54;;;;;;;11.65;2.45;;;23.30;28.90;;;;;;4953234;29;20079;-82
2021/03/31 12:13:20;;;;;;;8.55;2.35;;;23.40;28.90;;;;;;4954249;28;20027;-82
2021/03/31 12:15:45;;;;;;;14.10;2.72;;;23.40;29.10;;;;;;4985911;28;20471;-83
2021/03/31 12:18:11;;;;;;;8.73;2.35;;;23.50;29.00;;;;;;4969912;28;20059;-82
2021/03/31 12:20:37;;;;;;;8.18;2.47;;;23.50;29.10;;;;;;4972276;28;20027;-82
2021/03/31 12:23:03;;;;;;;7.47;2.67;;;23.60;28.90;;;;;;4971362;28;20031;-82
2021/03/31 12:25:29;;;;;;;9.25;2.78;;;23.60;28.70;;;;;;4974421;28;20042;-82
2021/03/31 12:28:00;;;;;;;10.00;2.20;;;23.70;28.80;;;;;;4952418;28;20032;-82
2021/03/31 12:30:26;;;;;;;12.38;2.78;;;23.80;28.70;;;;;;4977219;28;20018;-82
2021/03/31 12:32:52;;;;;;;9.57;2.30;;;23.80;28.80;;;;;;4959149;28;20024;-82
2021/03/31 12:35:24;;;;;;;12.80;2.53;;;23.90;28.90;;;;;;4969219;28;20041;-82
2021/03/31 12:37:50;;;;;;;12.38;3.03;;;24.00;28.90;;;;;;4968947;28;20027;-82
2021/03/31 12:40:17;;;;;;;12.57;2.97;;;24.00;29.00;;;;;;4952979;28;20031;-82
2021/03/31 12:42:42;;;;;;;13.75;2.63;;;24.10;28.90;;;;;;4968527;28;20290;-82
2021/03/31 12:45:09;;;;;;;7.82;2.78;;;24.10;28.60;;;;;;4966409;28;20135;-82
2021/03/31 12:47:35;;;;;;;8.70;2.42;;;24.10;28.30;;;;;;4963584;28;20027;-81
2021/03/31 12:50:08;;;;;;;6.18;2.42;;;24.00;28.00;;;;;;4969621;28;20082;-82
2021/03/31 12:52:41;;;;;;;10.02;2.40;;;24.00;27.80;;;;;;4968592;28;20123;-82
2021/03/31 12:55:10;;;;;;;9.85;2.95;;;24.00;27.80;;;;;;4962251;28;20372;-82
2021/03/31 12:57:36;;;;;;;12.35;3.53;;;24.00;27.80;;;;;;4985200;28;20394;-82
2021/03/31 13:00:04;;;;;;;6.78;2.85;;;24.00;27.80;;;;;;4975012;28;20026;-82
2021/03/31 13:02:30;;;;;;;10.05;3.53;;;24.00;27.90;;;;;;4972561;28;20082;-82
2021/03/31 13:04:56;;;;;;;13.65;2.67;;;24.00;28.00;;;;;;4978106;28;20034;-81
2021/03/31 13:07:22;;;;;;;10.82;2.47;;;24.00;28.00;;;;;;4972050;28;20561;-82
2021/03/31 13:09:48;;;;;;;7.20;2.58;;;24.00;28.10;;;;;;4963857;28;20117;-83
2021/03/31 13:12:32;;;;;;;7.75;2.80;;;24.10;28.40;;;;;;4972063;28;20058;-82
2021/03/31 13:17:39;;;;;;;11.38;3.10;;;24.10;28.80;;;;;;4973142;28;20037;-83
2021/03/31 13:23:09;;;;;;;7.57;2.38;;;24.00;28.10;;;;;;4948813;28;20101;-82
2021/03/31 13:25:47;;;;;;;9.88;3.30;;;24.10;28.10;;;;;;4975281;28;20058;-81
2021/03/31 13:31:00;;;;;;;10.02;3.20;;;24.00;28.30;;;;;;4976687;28;20027;-81
2021/03/31 13:33:32;;;;;;;6.90;2.40;;;24.10;28.20;;;;;;4970424;28;21005;-82